Wetterdaten: aktuell Donnerstag, 26.04.2018 22:35
Datum Zeit Temp. A. Feuchte A. Luftdruck Regen Wind Richtung Richtung Sonnenschein Solar Taupunkt Windben
26.04.2018 22:35 6,9 C 87 % 1013,7 hPa 0,0 l/m 0,0 km/h (0 Bft) W-SW 239 0 min 0 W/m 4,9 C 0,0 km/h (0 Bft)
26.04.2018 22:30 6,9 C 87 % 1013,7 hPa 0,0 l/m 0,0 km/h (0 Bft) W-SW 239 0 min 0 W/m 4,9 C 0,0 km/h (0 Bft)
26.04.2018 22:25 7,1 C 87 % 1013,7 hPa 0,0 l/m 0,0 km/h (0 Bft) W-SW 239 0 min 0 W/m 5,1 C 0,0 km/h (0 Bft)
26.04.2018 22:20 7,1 C 87 % 1013,7 hPa 0,0 l/m 0,0 km/h (0 Bft) W-SW 239 0 min 0 W/m 5,1 C 0,0 km/h (0 Bft)
26.04.2018 22:15 7,1 C 86 % 1013,8 hPa 0,0 l/m 0,0 km/h (0 Bft) W-SW 239 0 min 0 W/m 4,9 C 1,6 km/h (1 Bft)
26.04.2018 22:10 7,2 C 86 % 1013,9 hPa 0,0 l/m 0,2 km/h (0 Bft) W-SW 239 0 min 0 W/m 5,0 C 1,6 km/h (1 Bft)
26.04.2018 22:05 7,2 C 86 % 1014,0 hPa 0,0 l/m 0,4 km/h (0 Bft) W-SW 239 0 min 0 W/m 5,0 C 3,2 km/h (1 Bft)
26.04.2018 22:00 7,3 C 86 % 1014,0 hPa 0,0 l/m 1,0 km/h (0 Bft) W-SW 239 0 min 0 W/m 5,1 C 3,2 km/h (1 Bft)
26.04.2018 21:55 7,3 C 85 % 1013,9 hPa 0,0 l/m 0,1 km/h (0 Bft) W-SW 239 0 min 0 W/m 4,9 C 1,6 km/h (1 Bft)
26.04.2018 21:50 7,3 C 85 % 1013,9 hPa 0,0 l/m 0,8 km/h (0 Bft) W-SW 239 0 min 0 W/m 4,9 C 4,8 km/h (1 Bft)
26.04.2018 21:45 7,4 C 85 % 1013,9 hPa 0,0 l/m 0,9 km/h (0 Bft) W-SW 239 0 min 0 W/m 5,0 C 3,2 km/h (1 Bft)
26.04.2018 21:40 7,5 C 84 % 1013,9 hPa 0,0 l/m 1,0 km/h (0 Bft) W-SW 239 0 min 0 W/m 5,0 C 3,2 km/h (1 Bft)
26.04.2018 21:35 7,6 C 84 % 1013,9 hPa 0,0 l/m 1,3 km/h (1 Bft) W-SW 239 0 min 0 W/m 5,1 C 3,2 km/h (1 Bft)
26.04.2018 21:30 7,7 C 84 % 1013,9 hPa 0,0 l/m 0,9 km/h (0 Bft) W-SW 239 0 min 0 W/m 5,2 C 3,2 km/h (1 Bft)
26.04.2018 21:25 7,9 C 84 % 1013,8 hPa 0,0 l/m 1,5 km/h (1 Bft) W-SW 239 0 min 0 W/m 5,4 C 4,8 km/h (1 Bft)
26.04.2018 21:20 7,9 C 84 % 1013,8 hPa 0,0 l/m 1,6 km/h (1 Bft) W-SW 241 0 min 0 W/m 5,4 C 3,2 km/h (1 Bft)
26.04.2018 21:15 8,0 C 84 % 1013,7 hPa 0,0 l/m 2,7 km/h (1 Bft) W-SW 246 0 min 0 W/m 5,5 C 9,7 km/h (2 Bft)
26.04.2018 21:10 8,2 C 83 % 1013,7 hPa 0,0 l/m 1,4 km/h (1 Bft) W-SW 250 0 min 0 W/m 5,5 C 4,8 km/h (1 Bft)
26.04.2018 21:05 8,3 C 83 % 1013,7 hPa 0,0 l/m 1,0 km/h (0 Bft) W-SW 250 0 min 0 W/m 5,6 C 3,2 km/h (1 Bft)
26.04.2018 21:00 8,5 C 82 % 1013,6 hPa 0,0 l/m 0,0 km/h (0 Bft) W-SW 250 0 min 0 W/m 5,6 C 0,0 km/h (0 Bft)
26.04.2018 20:55 8,6 C 82 % 1013,6 hPa 0,0 l/m 1,6 km/h (1 Bft) W-SW 247 0 min 0 W/m 5,7 C 6,4 km/h (2 Bft)
26.04.2018 20:50 8,7 C 82 % 1013,5 hPa 0,0 l/m 3,2 km/h (1 Bft) W-SW 247 0 min 0 W/m 5,8 C 16,1 km/h (3 Bft)
26.04.2018 20:45 8,8 C 81 % 1013,4 hPa 0,0 l/m 3,2 km/h (1 Bft) W 270 0 min 5 W/m 5,7 C 9,7 km/h (2 Bft)
26.04.2018 20:40 8,9 C 81 % 1013,4 hPa 0,0 l/m 1,6 km/h (1 Bft) NW 315 0 min 7 W/m 5,8 C 6,4 km/h (2 Bft)
26.04.2018 20:35 8,9 C 81 % 1013,3 hPa 0,0 l/m 4,8 km/h (1 Bft) W 270 0 min 11 W/m 5,8 C 11,3 km/h (2 Bft)
26.04.2018 20:30 9,1 C 80 % 1013,2 hPa 0,0 l/m 4,8 km/h (1 Bft) W 270 0 min 14 W/m 5,8 C 9,7 km/h (2 Bft)
26.04.2018 20:25 9,2 C 80 % 1013,3 hPa 0,0 l/m 2,6 km/h (1 Bft) W 263 5 min 18 W/m 5,9 C 8,0 km/h (2 Bft)
26.04.2018 20:20 9,3 C 79 % 1013,1 hPa 0,0 l/m 4,6 km/h (1 Bft) W-NW 282 5 min 23 W/m 5,8 C 16,1 km/h (3 Bft)
26.04.2018 20:15 9,4 C 79 % 1013,1 hPa 0,0 l/m 4,6 km/h (1 Bft) SW 235 5 min 27 W/m 5,9 C 14,5 km/h (3 Bft)
26.04.2018 20:10 9,4 C 79 % 1012,9 hPa 0,0 l/m 3,5 km/h (1 Bft) W 263 0 min 26 W/m 5,9 C 8,0 km/h (2 Bft)
26.04.2018 20:05 9,6 C 79 % 1012,9 hPa 0,0 l/m 5,0 km/h (1 Bft) W-NW 291 0 min 37 W/m 6,1 C 14,5 km/h (3 Bft)
26.04.2018 20:00 9,7 C 79 % 1012,7 hPa 0,0 l/m 3,9 km/h (1 Bft) W-NW 288 0 min 37 W/m 6,2 C 11,3 km/h (2 Bft)
26.04.2018 19:55 9,8 C 79 % 1012,8 hPa 0,0 l/m 3,5 km/h (1 Bft) W 278 0 min 51 W/m 6,3 C 12,9 km/h (3 Bft)
26.04.2018 19:50 9,8 C 79 % 1012,8 hPa 0,0 l/m 5,4 km/h (1 Bft) NW 313 0 min 57 W/m 6,3 C 17,7 km/h (3 Bft)
26.04.2018 19:45 9,8 C 79 % 1012,7 hPa 0,0 l/m 5,5 km/h (1 Bft) N-NW 328 5 min 75 W/m 6,3 C 17,7 km/h (3 Bft)
26.04.2018 19:40 9,8 C 80 % 1012,7 hPa 0,0 l/m 7,6 km/h (2 Bft) W-NW 288 5 min 76 W/m 6,5 C 24,1 km/h (4 Bft)
26.04.2018 19:35 9,9 C 80 % 1012,6 hPa 0,0 l/m 4,5 km/h (1 Bft) W-SW 254 0 min 66 W/m 6,6 C 17,7 km/h (3 Bft)
26.04.2018 19:30 10,0 C 80 % 1012,5 hPa 0,0 l/m 3,3 km/h (1 Bft) W-SW 248 0 min 56 W/m 6,7 C 9,7 km/h (2 Bft)
26.04.2018 19:25 10,1 C 80 % 1012,4 hPa 0,0 l/m 3,4 km/h (1 Bft) S-SW 207 0 min 67 W/m 6,8 C 9,7 km/h (2 Bft)
26.04.2018 19:20 10,1 C 79 % 1012,4 hPa 0,0 l/m 5,0 km/h (1 Bft) W-SW 246 0 min 77 W/m 6,6 C 17,7 km/h (3 Bft)
26.04.2018 19:15 10,1 C 79 % 1012,4 hPa 0,0 l/m 7,2 km/h (2 Bft) W-SW 246 0 min 80 W/m 6,6 C 20,9 km/h (4 Bft)
26.04.2018 19:10 10,2 C 79 % 1012,3 hPa 0,0 l/m 4,0 km/h (1 Bft) W-SW 250 0 min 52 W/m 6,7 C 19,3 km/h (3 Bft)
26.04.2018 19:05 10,4 C 80 % 1012,2 hPa 0,0 l/m 4,6 km/h (1 Bft) W 280 0 min 110 W/m 7,1 C 11,3 km/h (2 Bft)
26.04.2018 19:00 10,4 C 80 % 1012,3 hPa 0,0 l/m 2,6 km/h (1 Bft) NW 313 0 min 107 W/m 7,1 C 8,0 km/h (2 Bft)
26.04.2018 18:55 10,3 C 80 % 1012,2 hPa 0,0 l/m 5,1 km/h (1 Bft) W-NW 292 5 min 200 W/m 7,0 C 12,9 km/h (3 Bft)
26.04.2018 18:50 10,1 C 80 % 1012,2 hPa 0,0 l/m 4,3 km/h (1 Bft) SW 225 5 min 170 W/m 6,8 C 11,3 km/h (2 Bft)
26.04.2018 18:45 10,1 C 79 % 1012,2 hPa 0,0 l/m 5,4 km/h (1 Bft) NW 315 0 min 90 W/m 6,6 C 12,9 km/h (3 Bft)
26.04.2018 18:40 10,2 C 78 % 1012,2 hPa 0,0 l/m 7,1 km/h (2 Bft) SW 217 0 min 51 W/m 6,5 C 17,7 km/h (3 Bft)
26.04.2018 18:35 10,3 C 78 % 1012,1 hPa 0,0 l/m 4,3 km/h (1 Bft) W-SW 254 0 min 60 W/m 6,6 C 9,7 km/h (2 Bft)
26.04.2018 18:30 10,4 C 76 % 1012,0 hPa 0,0 l/m 4,8 km/h (1 Bft) W 279 0 min 60 W/m 6,4 C 12,9 km/h (3 Bft)
26.04.2018 18:25 10,8 C 76 % 1012,0 hPa 0,0 l/m 6,4 km/h (2 Bft) SW 234 0 min 46 W/m 6,7 C 17,7 km/h (3 Bft)
26.04.2018 18:20 11,2 C 75 % 1011,9 hPa 0,0 l/m 4,1 km/h (1 Bft) SW 226 0 min 44 W/m 6,9 C 14,5 km/h (3 Bft)
26.04.2018 18:15 11,4 C 74 % 1011,8 hPa 0,0 l/m 5,4 km/h (1 Bft) S-SW 209 0 min 125 W/m 6,9 C 17,7 km/h (3 Bft)
26.04.2018 18:10 11,4 C 78 % 1011,8 hPa 0,0 l/m 4,8 km/h (1 Bft) W-SW 253 5 min 289 W/m 7,7 C 12,9 km/h (3 Bft)
26.04.2018 18:05 10,7 C 79 % 1011,8 hPa 0,0 l/m 4,0 km/h (1 Bft) W 269 0 min 179 W/m 7,2 C 9,7 km/h (2 Bft)
26.04.2018 18:00 10,6 C 79 % 1011,7 hPa 0,0 l/m 3,9 km/h (1 Bft) NW 309 0 min 111 W/m 7,1 C 17,7 km/h (3 Bft)
26.04.2018 17:55 10,6 C 79 % 1011,6 hPa 0,0 l/m 5,1 km/h (1 Bft) NW 308 0 min 174 W/m 7,1 C 16,1 km/h (3 Bft)
26.04.2018 17:50 10,6 C 80 % 1011,7 hPa 0,0 l/m 4,3 km/h (1 Bft) SW 227 0 min 108 W/m 7,3 C 17,7 km/h (3 Bft)
26.04.2018 17:45 10,7 C 81 % 1011,6 hPa 0,0 l/m 4,3 km/h (1 Bft) S-SW 200 0 min 90 W/m 7,6 C 20,9 km/h (4 Bft)
26.04.2018 17:40 10,8 C 82 % 1011,5 hPa 0,0 l/m 3,0 km/h (1 Bft) W-NW 288 0 min 121 W/m 7,9 C 9,7 km/h (2 Bft)
26.04.2018 17:35 10,8 C 82 % 1011,6 hPa 0,0 l/m 5,8 km/h (2 Bft) SW 231 0 min 156 W/m 7,9 C 17,7 km/h (3 Bft)
26.04.2018 17:30 10,6 C 85 % 1011,6 hPa 0,0 l/m 2,8 km/h (1 Bft) W-SW 244 0 min 148 W/m 8,2 C 9,7 km/h (2 Bft)
26.04.2018 17:25 10,3 C 85 % 1011,7 hPa 0,0 l/m 2,8 km/h (1 Bft) S-SW 202 0 min 124 W/m 7,9 C 6,4 km/h (2 Bft)
26.04.2018 17:20 10,2 C 83 % 1011,7 hPa 0,0 l/m 5,4 km/h (1 Bft) W 267 0 min 77 W/m 7,4 C 17,7 km/h (3 Bft)
26.04.2018 17:15 10,3 C 83 % 1011,7 hPa 0,0 l/m 4,7 km/h (1 Bft) W 259 0 min 72 W/m 7,5 C 14,5 km/h (3 Bft)
26.04.2018 17:10 10,4 C 85 % 1011,6 hPa 0,0 l/m 2,8 km/h (1 Bft) S-SW 207 0 min 138 W/m 8,0 C 6,4 km/h (2 Bft)
26.04.2018 17:05 10,5 C 84 % 1011,6 hPa 0,0 l/m 4,1 km/h (1 Bft) W-SW 244 0 min 89 W/m 7,9 C 11,3 km/h (2 Bft)
26.04.2018 17:00 10,8 C 83 % 1011,8 hPa 0,0 l/m 6,5 km/h (2 Bft) S 183 0 min 90 W/m 8,0 C 16,1 km/h (3 Bft)
26.04.2018 16:55 11,1 C 84 % 1011,7 hPa 0,0 l/m 5,1 km/h (1 Bft) W-SW 253 5 min 388 W/m 8,5 C 12,9 km/h (3 Bft)
26.04.2018 16:50 11,1 C 87 % 1011,6 hPa 0,0 l/m 5,2 km/h (1 Bft) SW 232 5 min 469 W/m 9,0 C 12,9 km/h (3 Bft)
26.04.2018 16:45 10,9 C 89 % 1011,7 hPa 0,0 l/m 3,7 km/h (1 Bft) W 273 5 min 470 W/m 9,2 C 14,5 km/h (3 Bft)
26.04.2018 16:40 10,7 C 90 % 1011,7 hPa 0,0 l/m 5,0 km/h (1 Bft) SW 219 5 min 652 W/m 9,1 C 14,5 km/h (3 Bft)
26.04.2018 16:35 10,4 C 92 % 1011,7 hPa 0,0 l/m 4,3 km/h (1 Bft) NW 322 5 min 651 W/m 9,2 C 12,9 km/h (3 Bft)
26.04.2018 16:30 9,2 C 90 % 1011,8 hPa 0,2 l/m 4,7 km/h (1 Bft) W 261 0 min 208 W/m 7,6 C 11,3 km/h (2 Bft)
26.04.2018 16:25 9,2 C 90 % 1011,7 hPa 0,0 l/m 3,2 km/h (1 Bft) W-SW 244 0 min 167 W/m 7,6 C 9,7 km/h (2 Bft)
26.04.2018 16:20 9,2 C 88 % 1011,7 hPa 0,0 l/m 4,5 km/h (1 Bft) S-SW 199 0 min 170 W/m 7,3 C 11,3 km/h (2 Bft)
26.04.2018 16:15 9,2 C 86 % 1011,7 hPa 0,0 l/m 4,8 km/h (1 Bft) W 264 0 min 153 W/m 7,0 C 14,5 km/h (3 Bft)
26.04.2018 16:10 9,6 C 85 % 1011,6 hPa 0,4 l/m 3,5 km/h (1 Bft) W 277 0 min 54 W/m 7,2 C 14,5 km/h (3 Bft)
26.04.2018 16:05 9,9 C 82 % 1011,7 hPa 0,4 l/m 5,1 km/h (1 Bft) S-SO 162 0 min 41 W/m 7,0 C 14,5 km/h (3 Bft)
26.04.2018 16:00 10,3 C 79 % 1011,6 hPa 0,0 l/m 7,1 km/h (2 Bft) W 279 0 min 63 W/m 6,8 C 17,7 km/h (3 Bft)
26.04.2018 15:55 10,7 C 77 % 1011,5 hPa 0,0 l/m 5,8 km/h (2 Bft) SO 145 0 min 84 W/m 6,8 C 14,5 km/h (3 Bft)
26.04.2018 15:50 11,0 C 77 % 1011,4 hPa 0,0 l/m 4,8 km/h (1 Bft) W 268 0 min 60 W/m 7,1 C 8,0 km/h (2 Bft)
26.04.2018 15:45 11,2 C 76 % 1011,4 hPa 0,0 l/m 4,8 km/h (1 Bft) S 180 0 min 91 W/m 7,1 C 14,5 km/h (3 Bft)
26.04.2018 15:40 11,3 C 76 % 1011,3 hPa 0,0 l/m 3,2 km/h (1 Bft) W 270 0 min 136 W/m 7,2 C 11,3 km/h (2 Bft)
26.04.2018 15:35 11,3 C 74 % 1011,3 hPa 0,0 l/m 6,4 km/h (2 Bft) W-SW 247 0 min 67 W/m 6,8 C 19,3 km/h (3 Bft)
26.04.2018 15:30 11,4 C 75 % 1011,2 hPa 0,0 l/m 6,4 km/h (2 Bft) W 270 0 min 154 W/m 7,1 C 17,7 km/h (3 Bft)
26.04.2018 15:25 11,4 C 75 % 1011,0 hPa 0,0 l/m 8,0 km/h (2 Bft) W 270 0 min 230 W/m 7,1 C 20,9 km/h (4 Bft)
26.04.2018 15:20 11,6 C 76 % 1011,0 hPa 0,0 l/m 3,2 km/h (1 Bft) W 270 0 min 152 W/m 7,5 C 9,7 km/h (2 Bft)
26.04.2018 15:15 11,7 C 75 % 1010,9 hPa 0,0 l/m 6,4 km/h (2 Bft) W 270 0 min 119 W/m 7,4 C 19,3 km/h (3 Bft)
26.04.2018 15:10 11,9 C 79 % 1010,8 hPa 0,0 l/m 3,2 km/h (1 Bft) W 270 0 min 214 W/m 8,4 C 14,5 km/h (3 Bft)
26.04.2018 15:05 11,6 C 79 % 1010,8 hPa 0,0 l/m 1,6 km/h (1 Bft) W 270 0 min 284 W/m 8,1 C 9,7 km/h (2 Bft)
26.04.2018 15:00 11,2 C 76 % 1010,8 hPa 0,0 l/m 4,8 km/h (1 Bft) W-SW 247 0 min 145 W/m 7,1 C 12,9 km/h (3 Bft)
26.04.2018 14:55 11,2 C 77 % 1010,8 hPa 0,0 l/m 4,8 km/h (1 Bft) W-SW 247 0 min 160 W/m 7,3 C 12,9 km/h (3 Bft)
26.04.2018 14:50 11,2 C 79 % 1010,8 hPa 0,0 l/m 4,8 km/h (1 Bft) W 270 0 min 163 W/m 7,7 C 14,5 km/h (3 Bft)
26.04.2018 14:45 11,3 C 80 % 1010,6 hPa 0,0 l/m 6,4 km/h (2 Bft) W 270 0 min 176 W/m 8,0 C 19,3 km/h (3 Bft)
26.04.2018 14:40 11,6 C 82 % 1010,7 hPa 0,0 l/m 3,2 km/h (1 Bft) S-SW 202 0 min 197 W/m 8,6 C 8,0 km/h (2 Bft)
26.04.2018 14:35 11,9 C 82 % 1010,7 hPa 0,0 l/m 3,2 km/h (1 Bft) W-NW 292 0 min 144 W/m 8,9 C 8,0 km/h (2 Bft)
26.04.2018 14:30 12,2 C 83 % 1010,5 hPa 0,0 l/m 4,8 km/h (1 Bft) W 270 0 min 338 W/m 9,4 C 11,3 km/h (2 Bft)
26.04.2018 14:25 12,2 C 86 % 1010,5 hPa 0,0 l/m 3,2 km/h (1 Bft) W 270 5 min 860 W/m 9,9 C 8,0 km/h (2 Bft)
26.04.2018 14:20 11,4 C 87 % 1010,5 hPa 0,0 l/m 4,8 km/h (1 Bft) W-SW 247 5 min 756 W/m 9,3 C 8,0 km/h (2 Bft)
26.04.2018 14:15 10,8 C 90 % 1010,5 hPa 0,0 l/m 3,2 km/h (1 Bft) SW 225 5 min 716 W/m 9,2 C 11,3 km/h (2 Bft)
26.04.2018 14:10 10,1 C 91 % 1010,5 hPa 0,0 l/m 1,6 km/h (1 Bft) S 180 0 min 288 W/m 8,7 C 6,4 km/h (2 Bft)
26.04.2018 14:05 9,9 C 90 % 1010,6 hPa 0,0 l/m 3,2 km/h (1 Bft) W 270 0 min 224 W/m 8,3 C 12,9 km/h (3 Bft)
26.04.2018 14:00 10,2 C 91 % 1010,7 hPa 0,0 l/m 3,2 km/h (1 Bft) S 180 5 min 559 W/m 8,8 C 8,0 km/h (2 Bft)
26.04.2018 13:55 9,8 C 92 % 1010,6 hPa 0,0 l/m 3,2 km/h (1 Bft) W-SW 247 5 min 729 W/m 8,6 C 8,0 km/h (2 Bft)
26.04.2018 13:50 9,1 C 90 % 1010,7 hPa 0,0 l/m 4,8 km/h (1 Bft) S-SW 202 0 min 180 W/m 7,5 C 11,3 km/h (2 Bft)
26.04.2018 13:45 9,2 C 89 % 1010,7 hPa 0,0 l/m 3,2 km/h (1 Bft) W-SW 247 0 min 131 W/m 7,5 C 16,1 km/h (3 Bft)
26.04.2018 13:40 9,3 C 88 % 1010,6 hPa 0,2 l/m 1,6 km/h (1 Bft) SW 225 0 min 38 W/m 7,4 C 4,8 km/h (1 Bft)
26.04.2018 13:35 9,5 C 87 % 1010,6 hPa 0,0 l/m 1,6 km/h (1 Bft) SW 225 0 min 19 W/m 7,4 C 4,8 km/h (1 Bft)
26.04.2018 13:30 9,9 C 86 % 1010,6 hPa 0,0 l/m 1,6 km/h (1 Bft) SW 225 0 min 21 W/m 7,7 C 4,8 km/h (1 Bft)
26.04.2018 13:25 10,2 C 87 % 1010,6 hPa 0,0 l/m 3,2 km/h (1 Bft) N-NO 22 0 min 17 W/m 8,1 C 9,7 km/h (2 Bft)
26.04.2018 13:20 10,6 C 87 % 1010,6 hPa 0,2 l/m 3,2 km/h (1 Bft) W 270 0 min 37 W/m 8,5 C 11,3 km/h (2 Bft)
26.04.2018 13:15 10,8 C 88 % 1010,4 hPa 0,0 l/m 3,2 km/h (1 Bft) W 270 0 min 186 W/m 8,9 C 9,7 km/h (2 Bft)
26.04.2018 13:10 11,1 C 89 % 1010,4 hPa 0,0 l/m 3,2 km/h (1 Bft) S-SW 202 0 min 325 W/m 9,4 C 6,4 km/h (2 Bft)
26.04.2018 13:05 10,8 C 90 % 1010,5 hPa 0,0 l/m 3,2 km/h (1 Bft) SW 225 5 min 863 W/m 9,2 C 11,3 km/h (2 Bft)
26.04.2018 13:00 10,6 C 93 % 1010,4 hPa 0,0 l/m 3,2 km/h (1 Bft) S-SW 202 5 min 842 W/m 9,5 C 11,3 km/h (2 Bft)
26.04.2018 12:55 10,1 C 92 % 1010,4 hPa 0,0 l/m 3,2 km/h (1 Bft) S-SW 202 5 min 832 W/m 8,9 C 9,7 km/h (2 Bft)
26.04.2018 12:50 10,0 C 93 % 1010,3 hPa 0,0 l/m 3,2 km/h (1 Bft) S-SO 157 5 min 822 W/m 8,9 C 6,4 km/h (2 Bft)
26.04.2018 12:45 9,7 C 94 % 1010,4 hPa 0,0 l/m 3,2 km/h (1 Bft) W 270 5 min 812 W/m 8,8 C 9,7 km/h (2 Bft)
26.04.2018 12:40 9,1 C 94 % 1010,4 hPa 0,0 l/m 1,6 km/h (1 Bft) SW 225 5 min 833 W/m 8,2 C 4,8 km/h (1 Bft)
26.04.2018 12:35 8,1 C 93 % 1010,5 hPa 0,0 l/m 1,6 km/h (1 Bft) W-NW 292 0 min 389 W/m 7,0 C 6,4 km/h (2 Bft)
26.04.2018 12:30 7,7 C 91 % 1010,4 hPa 0,2 l/m 1,6 km/h (1 Bft) W 270 0 min 100 W/m 6,3 C 9,7 km/h (2 Bft)
26.04.2018 12:25 7,8 C 90 % 1010,5 hPa 0,4 l/m 3,2 km/h (1 Bft) S-SW 202 0 min 24 W/m 6,3 C 8,0 km/h (2 Bft)
26.04.2018 12:20 8,1 C 89 % 1010,6 hPa 0,4 l/m 6,4 km/h (2 Bft) W-NW 292 0 min 10 W/m 6,4 C 14,5 km/h (3 Bft)
26.04.2018 12:15 8,7 C 88 % 1010,7 hPa 0,2 l/m 4,8 km/h (1 Bft) S-SW 202 0 min 9 W/m 6,8 C 14,5 km/h (3 Bft)
26.04.2018 12:10 9,4 C 88 % 1010,6 hPa 0,6 l/m 6,4 km/h (2 Bft) SW 225 0 min 7 W/m 7,5 C 16,1 km/h (3 Bft)
26.04.2018 12:05 10,1 C 89 % 1010,1 hPa 0,0 l/m 3,2 km/h (1 Bft) W-SW 247 0 min 11 W/m 8,4 C 11,3 km/h (2 Bft)
26.04.2018 12:00 10,2 C 89 % 1009,9 hPa 0,0 l/m 3,2 km/h (1 Bft) W-SW 247 0 min 79 W/m 8,5 C 8,0 km/h (2 Bft)
26.04.2018 11:55 10,3 C 89 % 1009,9 hPa 0,0 l/m 3,2 km/h (1 Bft) S-SW 202 0 min 151 W/m 8,6 C 9,7 km/h (2 Bft)
26.04.2018 11:50 10,6 C 91 % 1009,8 hPa 0,0 l/m 3,2 km/h (1 Bft) S-SW 202 0 min 303 W/m 9,2 C 12,9 km/h (3 Bft)
26.04.2018 11:45 10,4 C 92 % 1009,8 hPa 0,0 l/m 3,2 km/h (1 Bft) W-SW 247 5 min 821 W/m 9,2 C 9,7 km/h (2 Bft)
26.04.2018 11:40 10,0 C 92 % 1009,7 hPa 0,0 l/m 3,2 km/h (1 Bft) S-SW 202 5 min 781 W/m 8,8 C 8,0 km/h (2 Bft)
26.04.2018 11:35 9,5 C 92 % 1009,7 hPa 0,0 l/m 1,6 km/h (1 Bft) W-SW 247 5 min 767 W/m 8,3 C 4,8 km/h (1 Bft)
26.04.2018 11:30 9,0 C 93 % 1009,7 hPa 0,0 l/m 0,0 km/h (0 Bft) W-SW 247 5 min 790 W/m 7,9 C 3,2 km/h (1 Bft)
26.04.2018 11:25 8,4 C 91 % 1009,7 hPa 0,0 l/m 1,6 km/h (1 Bft) W-SW 247 0 min 273 W/m 7,0 C 4,8 km/h (1 Bft)
26.04.2018 11:20 8,4 C 89 % 1009,8 hPa 0,2 l/m 3,2 km/h (1 Bft) W-SW 247 0 min 162 W/m 6,7 C 6,4 km/h (2 Bft)
26.04.2018 11:15 8,7 C 88 % 1010,0 hPa 0,2 l/m 3,2 km/h (1 Bft) W 270 0 min 59 W/m 6,8 C 12,9 km/h (3 Bft)
26.04.2018 11:10 9,2 C 87 % 1010,0 hPa 0,0 l/m 4,8 km/h (1 Bft) SW 225 0 min 17 W/m 7,2 C 11,3 km/h (2 Bft)
26.04.2018 11:05 9,8 C 88 % 1010,0 hPa 0,6 l/m 3,2 km/h (1 Bft) W-NW 292 0 min 10 W/m 7,9 C 11,3 km/h (2 Bft)
26.04.2018 11:00 10,2 C 87 % 1009,6 hPa 0,0 l/m 1,6 km/h (1 Bft) W-NW 292 0 min 22 W/m 8,1 C 4,8 km/h (1 Bft)
26.04.2018 10:55 10,3 C 87 % 1009,4 hPa 0,4 l/m 3,2 km/h (1 Bft) W-NW 292 0 min 59 W/m 8,2 C 8,0 km/h (2 Bft)
26.04.2018 10:50 10,4 C 86 % 1009,4 hPa 0,0 l/m 4,8 km/h (1 Bft) W-SW 247 0 min 191 W/m 8,2 C 14,5 km/h (3 Bft)
26.04.2018 10:45 10,5 C 88 % 1009,3 hPa 0,0 l/m 4,8 km/h (1 Bft) W 270 0 min 300 W/m 8,6 C 14,5 km/h (3 Bft)
26.04.2018 10:40 10,4 C 88 % 1009,3 hPa 0,0 l/m 3,2 km/h (1 Bft) W-SW 247 0 min 235 W/m 8,5 C 8,0 km/h (2 Bft)
26.04.2018 10:35 10,3 C 88 % 1009,3 hPa 0,0 l/m 4,8 km/h (1 Bft) W-SW 247 0 min 234 W/m 8,4 C 12,9 km/h (3 Bft)
26.04.2018 10:30 10,3 C 88 % 1009,3 hPa 0,0 l/m 6,4 km/h (2 Bft) W-SW 247 0 min 251 W/m 8,4 C 12,9 km/h (3 Bft)
26.04.2018 10:25 10,3 C 89 % 1009,2 hPa 0,0 l/m 3,2 km/h (1 Bft) S-SW 202 0 min 209 W/m 8,6 C 12,9 km/h (3 Bft)
26.04.2018 10:20 10,0 C 90 % 1009,2 hPa 0,0 l/m 4,8 km/h (1 Bft) SW 225 0 min 265 W/m 8,4 C 12,9 km/h (3 Bft)
26.04.2018 10:15 9,9 C 91 % 1009,1 hPa 0,0 l/m 3,2 km/h (1 Bft) S-SW 202 0 min 254 W/m 8,5 C 8,0 km/h (2 Bft)
26.04.2018 10:10 9,8 C 93 % 1009,2 hPa 0,0 l/m 3,2 km/h (1 Bft) SW 225 5 min 322 W/m 8,7 C 6,4 km/h (2 Bft)
26.04.2018 10:05 9,6 C 93 % 1009,2 hPa 0,0 l/m 1,6 km/h (1 Bft) SW 225 0 min 180 W/m 8,5 C 8,0 km/h (2 Bft)
26.04.2018 10:00 9,5 C 93 % 1009,1 hPa 0,0 l/m 1,6 km/h (1 Bft) W-SW 247 0 min 137 W/m 8,4 C 6,4 km/h (2 Bft)
26.04.2018 09:55 9,3 C 93 % 1009,1 hPa 0,0 l/m 3,2 km/h (1 Bft) SW 225 0 min 185 W/m 8,2 C 9,7 km/h (2 Bft)
26.04.2018 09:50 9,3 C 93 % 1009,1 hPa 0,0 l/m 3,2 km/h (1 Bft) SW 225 0 min 186 W/m 8,2 C 11,3 km/h (2 Bft)
26.04.2018 09:45 9,3 C 94 % 1009,1 hPa 0,0 l/m 4,8 km/h (1 Bft) S 180 0 min 212 W/m 8,4 C 14,5 km/h (3 Bft)
26.04.2018 09:40 8,9 C 94 % 1009,0 hPa 0,0 l/m 3,2 km/h (1 Bft) W 270 0 min 263 W/m 8,0 C 9,7 km/h (2 Bft)
26.04.2018 09:35 8,8 C 94 % 1009,0 hPa 0,0 l/m 4,8 km/h (1 Bft) W-SW 247 0 min 199 W/m 7,9 C 16,1 km/h (3 Bft)
26.04.2018 09:30 8,9 C 95 % 1009,0 hPa 0,0 l/m 3,2 km/h (1 Bft) W-SW 247 0 min 147 W/m 8,1 C 11,3 km/h (2 Bft)
26.04.2018 09:25 8,8 C 95 % 1009,0 hPa 0,0 l/m 4,8 km/h (1 Bft) W-SW 247 0 min 145 W/m 8,0 C 11,3 km/h (2 Bft)
26.04.2018 09:20 8,9 C 95 % 1009,0 hPa 0,0 l/m 3,2 km/h (1 Bft) SW 225 0 min 145 W/m 8,1 C 9,7 km/h (2 Bft)
26.04.2018 09:15 8,8 C 95 % 1009,0 hPa 0,0 l/m 3,2 km/h (1 Bft) S-SW 202 0 min 164 W/m 8,0 C 6,4 km/h (2 Bft)
26.04.2018 09:10 8,8 C 95 % 1008,9 hPa 0,0 l/m 3,2 km/h (1 Bft) W-SW 247 0 min 192 W/m 8,0 C 9,7 km/h (2 Bft)
26.04.2018 09:05 8,6 C 95 % 1008,9 hPa 0,0 l/m 3,2 km/h (1 Bft) W 270 0 min 221 W/m 7,8 C 8,0 km/h (2 Bft)
26.04.2018 09:00 8,3 C 95 % 1008,8 hPa 0,0 l/m 3,2 km/h (1 Bft) S-SW 202 0 min 170 W/m 7,5 C 8,0 km/h (2 Bft)
26.04.2018 08:55 8,3 C 95 % 1008,7 hPa 0,0 l/m 3,2 km/h (1 Bft) SW 225 0 min 89 W/m 7,5 C 17,7 km/h (3 Bft)
26.04.2018 08:50 8,3 C 95 % 1008,7 hPa 0,0 l/m 3,2 km/h (1 Bft) W 270 0 min 111 W/m 7,5 C 6,4 km/h (2 Bft)
26.04.2018 08:45 8,3 C 95 % 1008,7 hPa 0,0 l/m 3,2 km/h (1 Bft) SW 225 0 min 123 W/m 7,5 C 11,3 km/h (2 Bft)
26.04.2018 08:40 8,2 C 95 % 1008,7 hPa 0,0 l/m 3,2 km/h (1 Bft) W-SW 247 0 min 153 W/m 7,4 C 6,4 km/h (2 Bft)
26.04.2018 08:35 8,2 C 96 % 1008,7 hPa 0,0 l/m 3,2 km/h (1 Bft) S-SW 202 0 min 193 W/m 7,6 C 9,7 km/h (2 Bft)
26.04.2018 08:30 7,9 C 95 % 1008,7 hPa 0,0 l/m 3,2 km/h (1 Bft) S-SW 202 0 min 137 W/m 7,1 C 9,7 km/h (2 Bft)
26.04.2018 08:25 8,0 C 95 % 1008,6 hPa 0,0 l/m 4,8 km/h (1 Bft) S-SW 202 0 min 106 W/m 7,2 C 11,3 km/h (2 Bft)
26.04.2018 08:20 8,0 C 95 % 1008,5 hPa 0,0 l/m 3,2 km/h (1 Bft) S-SW 202 0 min 77 W/m 7,2 C 8,0 km/h (2 Bft)
26.04.2018 08:15 8,0 C 95 % 1008,5 hPa 0,0 l/m 3,2 km/h (1 Bft) W-SW 247 0 min 57 W/m 7,2 C 6,4 km/h (2 Bft)
26.04.2018 08:10 8,1 C 96 % 1008,4 hPa 0,0 l/m 3,2 km/h (1 Bft) W-SW 247 0 min 78 W/m 7,5 C 6,4 km/h (2 Bft)
26.04.2018 08:05 8,0 C 95 % 1008,4 hPa 0,0 l/m 1,6 km/h (1 Bft) S 180 0 min 123 W/m 7,2 C 4,8 km/h (1 Bft)
26.04.2018 08:00 7,9 C 96 % 1008,4 hPa 0,0 l/m 1,6 km/h (1 Bft) SW 225 0 min 107 W/m 7,3 C 3,2 km/h (1 Bft)
26.04.2018 07:55 7,8 C 96 % 1008,4 hPa 0,0 l/m 1,6 km/h (1 Bft) S-SW 202 0 min 71 W/m 7,2 C 3,2 km/h (1 Bft)
26.04.2018 07:50 7,7 C 95 % 1008,3 hPa 0,0 l/m 1,6 km/h (1 Bft) S-SW 202 0 min 64 W/m 7,0 C 4,8 km/h (1 Bft)
26.04.2018 07:45 7,6 C 95 % 1008,2 hPa 0,0 l/m 1,6 km/h (1 Bft) W-SW 247 0 min 56 W/m 6,9 C 3,2 km/h (1 Bft)
26.04.2018 07:40 7,5 C 95 % 1008,3 hPa 0,0 l/m 1,6 km/h (1 Bft) W-SW 247 0 min 41 W/m 6,8 C 3,2 km/h (1 Bft)
26.04.2018 07:35 7,4 C 95 % 1008,2 hPa 0,0 l/m 0,5 km/h (0 Bft) SW 221 0 min 48 W/m 6,7 C 1,6 km/h (1 Bft)
26.04.2018 07:30 7,4 C 95 % 1008,2 hPa 0,0 l/m 0,8 km/h (0 Bft) SW 221 0 min 27 W/m 6,7 C 3,2 km/h (1 Bft)
26.04.2018 07:25 7,4 C 95 % 1008,2 hPa 0,0 l/m 0,1 km/h (0 Bft) SW 221 0 min 15 W/m 6,7 C 1,6 km/h (1 Bft)
26.04.2018 07:20 7,4 C 95 % 1008,1 hPa 0,0 l/m 0,6 km/h (0 Bft) SW 221 0 min 18 W/m 6,7 C 3,2 km/h (1 Bft)
26.04.2018 07:15 7,4 C 95 % 1008,1 hPa 0,0 l/m 1,1 km/h (1 Bft) SW 221 0 min 26 W/m 6,7 C 4,8 km/h (1 Bft)
26.04.2018 07:10 7,3 C 95 % 1008,1 hPa 0,0 l/m 0,6 km/h (0 Bft) NW 315 0 min 33 W/m 6,6 C 3,2 km/h (1 Bft)
26.04.2018 07:05 7,3 C 95 % 1008,1 hPa 0,0 l/m 0,5 km/h (0 Bft) N-NW 333 0 min 38 W/m 6,6 C 3,2 km/h (1 Bft)
26.04.2018 07:00 7,3 C 95 % 1008,1 hPa 0,0 l/m 0,0 km/h (0 Bft) N-NW 333 0 min 41 W/m 6,6 C 0,0 km/h (0 Bft)
26.04.2018 06:55 7,2 C 95 % 1008,0 hPa 0,2 l/m 1,3 km/h (1 Bft) W 263 0 min 23 W/m 6,5 C 4,8 km/h (1 Bft)
26.04.2018 06:50 7,2 C 95 % 1007,9 hPa 0,0 l/m 1,5 km/h (1 Bft) S-SW 193 0 min 13 W/m 6,5 C 4,8 km/h (1 Bft)
26.04.2018 06:45 7,2 C 95 % 1008,0 hPa 0,0 l/m 1,7 km/h (1 Bft) W-SW 246 0 min 6 W/m 6,5 C 4,8 km/h (1 Bft)
26.04.2018 06:40 7,2 C 95 % 1007,9 hPa 0,0 l/m 1,8 km/h (1 Bft) W-SW 257 0 min 0 W/m 6,5 C 6,4 km/h (2 Bft)
26.04.2018 06:35 7,2 C 95 % 1008,0 hPa 0,2 l/m 4,5 km/h (1 Bft) S-SW 204 0 min 0 W/m 6,5 C 9,7 km/h (2 Bft)
26.04.2018 06:30 7,3 C 95 % 1008,0 hPa 0,2 l/m 4,0 km/h (1 Bft) W-SW 258 0 min 0 W/m 6,6 C 11,3 km/h (2 Bft)
26.04.2018 06:25 7,3 C 95 % 1008,0 hPa 0,2 l/m 2,6 km/h (1 Bft) SW 217 0 min 0 W/m 6,6 C 6,4 km/h (2 Bft)
26.04.2018 06:20 7,3 C 95 % 1008,0 hPa 0,6 l/m 4,0 km/h (1 Bft) S-SW 211 0 min 0 W/m 6,6 C 6,4 km/h (2 Bft)
26.04.2018 05:15 6,7 C 95 % 1007,7 hPa 0,0 l/m 1,6 km/h (1 Bft) S 180 0 min 0 W/m 6,0 C 3,2 km/h (1 Bft)
26.04.2018 05:10 6,6 C 95 % 1007,7 hPa 0,0 l/m 1,6 km/h (1 Bft) S 180 0 min 0 W/m 5,9 C 6,4 km/h (2 Bft)
26.04.2018 05:05 6,6 C 95 % 1007,7 hPa 0,0 l/m 0,0 km/h (0 Bft) S-SO 157 0 min 0 W/m 5,9 C 3,2 km/h (1 Bft)
26.04.2018 05:00 6,6 C 95 % 1007,8 hPa 0,0 l/m 0,0 km/h (0 Bft) S-SO 157 0 min 0 W/m 5,9 C 1,6 km/h (1 Bft)
26.04.2018 04:55 6,6 C 95 % 1007,8 hPa 0,0 l/m 1,6 km/h (1 Bft) S-SO 157 0 min 0 W/m 5,9 C 6,4 km/h (2 Bft)
26.04.2018 04:50 6,6 C 95 % 1007,7 hPa 0,0 l/m 1,6 km/h (1 Bft) S-SO 157 0 min 0 W/m 5,9 C 4,8 km/h (1 Bft)
26.04.2018 04:45 6,6 C 95 % 1007,8 hPa 0,0 l/m 0,0 km/h (0 Bft) S-SO 157 0 min 0 W/m 5,9 C 1,6 km/h (1 Bft)
26.04.2018 04:40 6,5 C 95 % 1007,8 hPa 0,0 l/m 0,0 km/h (0 Bft) S-SO 157 0 min 0 W/m 5,8 C 1,6 km/h (1 Bft)
26.04.2018 04:35 6,5 C 95 % 1007,7 hPa 0,0 l/m 0,0 km/h (0 Bft) S-SO 157 0 min 0 W/m 5,8 C 3,2 km/h (1 Bft)
26.04.2018 04:30 6,5 C 95 % 1007,8 hPa 0,0 l/m 1,6 km/h (1 Bft) S-SO 157 0 min 0 W/m 5,8 C 6,4 km/h (2 Bft)
26.04.2018 04:25 6,4 C 95 % 1007,8 hPa 0,0 l/m 1,6 km/h (1 Bft) S-SO 157 0 min 0 W/m 5,7 C 3,2 km/h (1 Bft)
26.04.2018 04:20 6,4 C 95 % 1007,9 hPa 0,0 l/m 1,6 km/h (1 Bft) S 180 0 min 0 W/m 5,7 C 4,8 km/h (1 Bft)
26.04.2018 04:15 6,3 C 95 % 1008,0 hPa 0,0 l/m 3,2 km/h (1 Bft) S 180 0 min 0 W/m 5,6 C 8,0 km/h (2 Bft)
26.04.2018 04:10 6,2 C 95 % 1008,1 hPa 0,0 l/m 1,6 km/h (1 Bft) S 180 0 min 0 W/m 5,5 C 3,2 km/h (1 Bft)
26.04.2018 04:05 6,1 C 95 % 1008,3 hPa 0,0 l/m 1,6 km/h (1 Bft) S-SO 157 0 min 0 W/m 5,4 C 3,2 km/h (1 Bft)
26.04.2018 04:00 5,9 C 95 % 1008,3 hPa 0,0 l/m 1,6 km/h (1 Bft) S 180 0 min 0 W/m 5,2 C 8,0 km/h (2 Bft)
26.04.2018 03:55 5,8 C 95 % 1008,3 hPa 0,0 l/m 0,0 km/h (0 Bft) S 180 0 min 0 W/m 5,1 C 3,2 km/h (1 Bft)
26.04.2018 03:50 5,8 C 94 % 1008,4 hPa 0,0 l/m 1,6 km/h (1 Bft) S-SW 202 0 min 0 W/m 4,9 C 3,2 km/h (1 Bft)
26.04.2018 03:45 5,6 C 94 % 1008,4 hPa 0,0 l/m 3,2 km/h (1 Bft) S-SW 202 0 min 0 W/m 4,7 C 4,8 km/h (1 Bft)
26.04.2018 03:40 5,4 C 94 % 1008,3 hPa 0,0 l/m 0,0 km/h (0 Bft) W-SW 247 0 min 0 W/m 4,5 C 3,2 km/h (1 Bft)
26.04.2018 03:35 5,2 C 94 % 1008,3 hPa 0,0 l/m 0,0 km/h (0 Bft) W-SW 247 0 min 0 W/m 4,3 C 1,6 km/h (1 Bft)
26.04.2018 03:30 5,2 C 94 % 1008,3 hPa 0,0 l/m 0,0 km/h (0 Bft) N 0 0 min 0 W/m 4,3 C 0,0 km/h (0 Bft)
26.04.2018 03:25 5,2 C 94 % 1008,2 hPa 0,0 l/m 0,0 km/h (0 Bft) W-SW 247 0 min 0 W/m 4,3 C 1,6 km/h (1 Bft)
26.04.2018 03:20 5,2 C 93 % 1008,3 hPa 0,0 l/m 0,0 km/h (0 Bft) W-SW 247 0 min 0 W/m 4,2 C 1,6 km/h (1 Bft)
26.04.2018 03:15 5,3 C 93 % 1008,3 hPa 0,0 l/m 0,0 km/h (0 Bft) N 0 0 min 0 W/m 4,3 C 0,0 km/h (0 Bft)
26.04.2018 03:10 5,3 C 93 % 1008,3 hPa 0,0 l/m 0,0 km/h (0 Bft) N 0 0 min 0 W/m 4,3 C 0,0 km/h (0 Bft)
26.04.2018 03:05 5,4 C 93 % 1008,2 hPa 0,0 l/m 0,0 km/h (0 Bft) N 0 0 min 0 W/m 4,4 C 0,0 km/h (0 Bft)
26.04.2018 03:00 5,4 C 93 % 1008,3 hPa 0,0 l/m 0,0 km/h (0 Bft) W-SW 247 0 min 0 W/m 4,4 C 3,2 km/h (1 Bft)
26.04.2018 02:55 5,5 C 93 % 1008,4 hPa 0,0 l/m 0,0 km/h (0 Bft) W-SW 247 0 min 0 W/m 4,5 C 1,6 km/h (1 Bft)
26.04.2018 02:50 5,5 C 93 % 1008,4 hPa 0,0 l/m 0,0 km/h (0 Bft) W-SW 247 0 min 0 W/m 4,5 C 3,2 km/h (1 Bft)
26.04.2018 02:45 5,6 C 93 % 1008,4 hPa 0,0 l/m 0,0 km/h (0 Bft) N 0 0 min 0 W/m 4,6 C 0,0 km/h (0 Bft)
26.04.2018 02:40 5,6 C 93 % 1008,3 hPa 0,0 l/m 0,0 km/h (0 Bft) N 0 0 min 0 W/m 4,6 C 0,0 km/h (0 Bft)
26.04.2018 02:35 5,7 C 93 % 1008,4 hPa 0,0 l/m 0,0 km/h (0 Bft) N 0 0 min 0 W/m 4,7 C 0,0 km/h (0 Bft)
26.04.2018 02:30 5,7 C 93 % 1008,4 hPa 0,0 l/m 0,0 km/h (0 Bft) N 0 0 min 0 W/m 4,7 C 0,0 km/h (0 Bft)
26.04.2018 02:25 5,7 C 93 % 1008,5 hPa 0,0 l/m 0,0 km/h (0 Bft) N 0 0 min 0 W/m 4,7 C 0,0 km/h (0 Bft)
26.04.2018 02:20 5,7 C 93 % 1008,5 hPa 0,0 l/m 0,0 km/h (0 Bft) N 0 0 min 0 W/m 4,7 C 0,0 km/h (0 Bft)
26.04.2018 02:15 5,8 C 93 % 1008,5 hPa 0,0 l/m 0,0 km/h (0 Bft) N 0 0 min 0 W/m 4,8 C 0,0 km/h (0 Bft)
26.04.2018 02:10 5,8 C 92 % 1008,6 hPa 0,0 l/m 0,0 km/h (0 Bft) N 0 0 min 0 W/m 4,6 C 0,0 km/h (0 Bft)
26.04.2018 02:05 5,9 C 92 % 1008,6 hPa 0,0 l/m 0,0 km/h (0 Bft) N 0 0 min 0 W/m 4,7 C 0,0 km/h (0 Bft)
26.04.2018 02:00 6,0 C 93 % 1008,6 hPa 0,0 l/m 0,0 km/h (0 Bft) N 0 0 min 0 W/m 5,0 C 0,0 km/h (0 Bft)
26.04.2018 01:55 6,1 C 92 % 1008,7 hPa 0,0 l/m 0,0 km/h (0 Bft) N 0 0 min 0 W/m 4,9 C 0,0 km/h (0 Bft)
26.04.2018 01:50 6,2 C 92 % 1008,7 hPa 0,0 l/m 0,0 km/h (0 Bft) N 0 0 min 0 W/m 5,0 C 0,0 km/h (0 Bft)
26.04.2018 01:45 6,2 C 92 % 1008,7 hPa 0,0 l/m 0,0 km/h (0 Bft) N 0 0 min 0 W/m 5,0 C 0,0 km/h (0 Bft)
26.04.2018 01:40 6,3 C 92 % 1008,7 hPa 0,0 l/m 0,0 km/h (0 Bft) W-SW 247 0 min 0 W/m 5,1 C 1,6 km/h (1 Bft)
26.04.2018 01:35 6,4 C 92 % 1008,8 hPa 0,0 l/m 0,0 km/h (0 Bft) N 0 0 min 0 W/m 5,2 C 0,0 km/h (0 Bft)
26.04.2018 01:30 6,5 C 92 % 1008,8 hPa 0,0 l/m 0,0 km/h (0 Bft) W-SW 247 0 min 0 W/m 5,3 C 3,2 km/h (1 Bft)
26.04.2018 01:25 6,6 C 92 % 1008,8 hPa 0,0 l/m 0,0 km/h (0 Bft) W-SW 247 0 min 0 W/m 5,4 C 1,6 km/h (1 Bft)
26.04.2018 01:20 6,6 C 92 % 1008,8 hPa 0,0 l/m 0,0 km/h (0 Bft) W-SW 247 0 min 0 W/m 5,4 C 3,2 km/h (1 Bft)
26.04.2018 01:15 6,7 C 92 % 1008,8 hPa 0,0 l/m 0,0 km/h (0 Bft) S 180 0 min 0 W/m 5,5 C 3,2 km/h (1 Bft)
26.04.2018 01:10 6,7 C 92 % 1008,8 hPa 0,0 l/m 1,6 km/h (1 Bft) S 180 0 min 0 W/m 5,5 C 3,2 km/h (1 Bft)
26.04.2018 01:05 6,8 C 92 % 1008,8 hPa 0,0 l/m 1,6 km/h (1 Bft) S 180 0 min 0 W/m 5,6 C 4,8 km/h (1 Bft)
26.04.2018 01:00 6,9 C 92 % 1008,8 hPa 0,0 l/m 0,0 km/h (0 Bft) W-SW 247 0 min 0 W/m 5,7 C 3,2 km/h (1 Bft)
26.04.2018 00:55 6,9 C 92 % 1008,8 hPa 0,0 l/m 1,6 km/h (1 Bft) W 270 0 min 0 W/m 5,7 C 6,4 km/h (2 Bft)
26.04.2018 00:50 6,9 C 91 % 1008,7 hPa 0,0 l/m 1,6 km/h (1 Bft) W 270 0 min 0 W/m 5,5 C 4,8 km/h (1 Bft)
26.04.2018 00:45 7,0 C 91 % 1008,8 hPa 0,0 l/m 1,6 km/h (1 Bft) W 270 0 min 0 W/m 5,6 C 4,8 km/h (1 Bft)
26.04.2018 00:40 7,1 C 91 % 1008,7 hPa 0,0 l/m 1,6 km/h (1 Bft) W 270 0 min 0 W/m 5,7 C 6,4 km/h (2 Bft)
26.04.2018 00:35 7,2 C 91 % 1008,7 hPa 0,0 l/m 1,6 km/h (1 Bft) W-SW 247 0 min 0 W/m 5,8 C 4,8 km/h (1 Bft)
26.04.2018 00:30 7,2 C 91 % 1008,8 hPa 0,0 l/m 1,6 km/h (1 Bft) W-SW 247 0 min 0 W/m 5,8 C 6,4 km/h (2 Bft)
26.04.2018 00:25 7,3 C 91 % 1008,7 hPa 0,0 l/m 3,2 km/h (1 Bft) S-SW 202 0 min 0 W/m 5,9 C 8,0 km/h (2 Bft)
26.04.2018 00:20 7,4 C 90 % 1008,7 hPa 0,0 l/m 3,2 km/h (1 Bft) W-SW 247 0 min 0 W/m 5,9 C 4,8 km/h (1 Bft)
26.04.2018 00:15 7,4 C 90 % 1008,7 hPa 0,0 l/m 1,6 km/h (1 Bft) W 270 0 min 0 W/m 5,9 C 4,8 km/h (1 Bft)
26.04.2018 00:10 7,5 C 90 % 1008,8 hPa 0,0 l/m 3,2 km/h (1 Bft) SW 225 0 min 0 W/m 6,0 C 6,4 km/h (2 Bft)
26.04.2018 00:05 7,5 C 90 % 1008,7 hPa 0,0 l/m 1,6 km/h (1 Bft) S-SW 202 0 min 0 W/m 6,0 C 4,8 km/h (1 Bft)
26.04.2018 00:00 7,6 C 90 % 1008,8 hPa 0,0 l/m 3,2 km/h (1 Bft) W-SW 247 0 min 0 W/m 6,1 C 9,7 km/h (2 Bft)
25.04.2018 23:55 7,7 C 89 % 1008,7 hPa 0,0 l/m 3,2 km/h (1 Bft) SW 225 0 min 0 W/m 6,0 C 6,4 km/h (2 Bft)
25.04.2018 23:50 7,7 C 89 % 1008,7 hPa 0,0 l/m 3,2 km/h (1 Bft) S-SW 202 0 min 0 W/m 6,0 C 4,8 km/h (1 Bft)
25.04.2018 23:45 7,8 C 89 % 1008,7 hPa 0,0 l/m 3,2 km/h (1 Bft) W-SW 247 0 min 0 W/m 6,1 C 14,5 km/h (3 Bft)
25.04.2018 23:40 7,9 C 89 % 1008,7 hPa 0,0 l/m 3,2 km/h (1 Bft) W-SW 247 0 min 0 W/m 6,2 C 8,0 km/h (2 Bft)
25.04.2018 23:35 8,0 C 89 % 1008,8 hPa 0,0 l/m 3,2 km/h (1 Bft) SW 225 0 min 0 W/m 6,3 C 12,9 km/h (3 Bft)
25.04.2018 23:30 8,1 C 89 % 1008,8 hPa 0,0 l/m 4,8 km/h (1 Bft) SW 225 0 min 0 W/m 6,4 C 8,0 km/h (2 Bft)
25.04.2018 23:25 8,2 C 89 % 1008,7 hPa 0,0 l/m 4,8 km/h (1 Bft) SW 225 0 min 0 W/m 6,5 C 11,3 km/h (2 Bft)
25.04.2018 23:20 8,2 C 89 % 1008,7 hPa 0,0 l/m 4,8 km/h (1 Bft) SW 225 0 min 0 W/m 6,5 C 11,3 km/h (2 Bft)
25.04.2018 23:15 8,2 C 89 % 1008,8 hPa 0,0 l/m 4,8 km/h (1 Bft) SW 225 0 min 0 W/m 6,5 C 11,3 km/h (2 Bft)
25.04.2018 23:10 8,2 C 89 % 1008,8 hPa 0,0 l/m 3,2 km/h (1 Bft) S-SW 202 0 min 0 W/m 6,5 C 11,3 km/h (2 Bft)
25.04.2018 23:05 8,3 C 89 % 1008,8 hPa 0,0 l/m 3,2 km/h (1 Bft) S-SO 157 0 min 0 W/m 6,6 C 14,5 km/h (3 Bft)
25.04.2018 23:00 8,2 C 89 % 1008,7 hPa 0,0 l/m 3,2 km/h (1 Bft) W-SW 247 0 min 0 W/m 6,5 C 6,4 km/h (2 Bft)
_ Min-Zeit 03:20 15:35 04:35 - 01:00 - - - - 03:20 01:35
Minimum _ 5,2 C 74 % 1007,7 hPa - 0,0 km/h (0 Bft) - - - - 4,2 C 0,0 km/h (0 Bft)
_ Max-Zeit 14:30 07:55 22:00 06:20 15:25 - - 10:10 13:05 14:25 19:40
Maximum _ 12,4 C 96 % 1014,0 hPa 0,6 l/m 8,0 km/h
W (2 Bft)
- - 5 min 863 W/m 9,9 C 24,1 km/h
W (4 Bft)
Durchschnitt _ 8,5 C 89 % 1010,0 hPa #6,0 l/m 2,8 km/h (1 Bft) W-SW - #2:25 h 189 W/m 6,7 C 8,1 km/h (2 Bft)